createdAt,value
2023-02-12T00:00:57.482Z,34.35
2023-02-12T00:06:02.544Z,38.58
2023-02-12T00:11:15.713Z,29.42
2023-02-12T00:16:20.134Z,32.97
2023-02-12T00:21:22.799Z,33.55
2023-02-12T00:26:25.182Z,35.30
2023-02-12T00:31:30.894Z,36.30
2023-02-12T00:36:32.899Z,36.38
2023-02-12T00:41:34.419Z,53.35
2023-02-12T00:46:35.977Z,42.53
2023-02-12T00:51:37.809Z,57.78
2023-02-12T00:56:39.700Z,59.08
2023-02-12T01:01:41.258Z,62.50
2023-02-12T01:06:42.847Z,51.67
2023-02-12T01:11:44.378Z,49.75
2023-02-12T01:16:45.849Z,47.30
2023-02-12T01:21:47.350Z,67.90
2023-02-12T01:26:48.814Z,67.80
2023-02-12T01:31:50.425Z,157.05
2023-02-12T01:36:52.054Z,119.15
2023-02-12T01:41:53.627Z,115.07
2023-02-12T01:46:57.865Z,78.95
2023-02-12T01:52:18.009Z,121.13
2023-02-12T01:57:20.122Z,138.93
2023-02-12T02:02:22.073Z,145.30
2023-02-12T02:07:24.176Z,183.25
2023-02-12T02:12:45.605Z,118.32
2023-02-12T02:17:55.907Z,136.15
2023-02-12T02:23:30.572Z,174.82
2023-02-12T02:28:59.208Z,182.20
2023-02-12T02:34:03.265Z,122.55
2023-02-12T02:39:29.589Z,159.00
2023-02-12T02:44:40.587Z,183.90
2023-02-12T02:49:50.077Z,180.23
2023-02-12T02:55:03.802Z,156.40
2023-02-12T03:00:32.590Z,214.50
2023-02-12T03:05:49.295Z,142.88
2023-02-12T03:10:59.879Z,98.43
2023-02-12T03:16:25.709Z,74.15
2023-02-12T03:21:35.924Z,59.58
2023-02-12T03:26:48.507Z,75.68
2023-02-12T03:32:27.512Z,39.88
2023-02-12T03:37:31.376Z,35.40
2023-02-12T03:42:41.095Z,57.97
2023-02-12T03:47:48.953Z,53.38
2023-02-12T03:58:00.771Z,31.67
2023-02-12T04:03:02.261Z,36.67
2023-02-12T04:08:07.760Z,40.33
2023-02-12T04:13:18.976Z,44.95
2023-02-12T04:18:49.380Z,46.85
2023-02-12T04:24:03.436Z,51.55
2023-02-12T04:29:29.251Z,49.75
2023-02-12T04:35:11.659Z,53.97
2023-02-12T04:40:17.072Z,63.97
2023-02-12T04:45:25.924Z,63.88
2023-02-12T04:50:37.146Z,64.25
2023-02-12T04:55:38.770Z,64.15
2023-02-12T05:00:40.419Z,71.65
2023-02-12T05:05:41.959Z,70.60
2023-02-12T05:10:43.462Z,66.63
2023-02-12T05:15:45.043Z,72.03
2023-02-12T05:20:46.633Z,75.28
2023-02-12T05:25:48.126Z,73.22
2023-02-12T05:30:49.644Z,70.13
2023-02-12T05:35:51.222Z,61.35
2023-02-12T05:40:52.735Z,68.95
2023-02-12T05:45:54.534Z,70.88
2023-02-12T05:51:06.595Z,74.15
2023-02-12T05:56:14.125Z,63.80
2023-02-12T06:01:25.951Z,69.07
2023-02-12T06:06:29.573Z,63.83
2023-02-12T06:11:31.092Z,70.93
2023-02-12T06:16:34.092Z,68.07
2023-02-12T06:21:35.728Z,68.82
2023-02-12T06:26:37.324Z,74.70
2023-02-12T06:31:38.995Z,73.90
2023-02-12T06:36:44.699Z,68.18
2023-02-12T06:41:46.352Z,75.47
2023-02-12T06:46:47.966Z,73.65
2023-02-12T06:51:49.529Z,81.00
2023-02-12T06:56:51.034Z,79.38
2023-02-12T07:01:52.487Z,77.45
2023-02-12T07:06:53.979Z,78.40
2023-02-12T07:11:56.865Z,80.00
2023-02-12T07:16:58.419Z,76.15
2023-02-12T07:21:59.972Z,83.05
2023-02-12T07:27:01.454Z,85.05
2023-02-12T07:32:03.040Z,87.57
2023-02-12T07:37:04.549Z,79.15
2023-02-12T07:42:06.101Z,76.55
2023-02-12T07:47:07.629Z,73.15
2023-02-12T07:52:10.992Z,77.55
2023-02-12T07:57:14.567Z,82.75
2023-02-12T08:02:16.159Z,80.47
2023-02-12T08:07:18.286Z,81.95
2023-02-12T08:12:19.905Z,67.93
2023-02-12T08:17:21.451Z,72.18
2023-02-12T08:22:22.976Z,66.55
2023-02-12T08:27:24.458Z,66.68
2023-02-12T08:32:25.922Z,63.95
2023-02-12T08:37:27.385Z,62.45
2023-02-12T08:42:29.555Z,59.63
2023-02-12T08:47:31.469Z,56.58
2023-02-12T08:52:35.158Z,56.38
2023-02-12T08:57:36.779Z,55.78
2023-02-12T09:02:38.283Z,46.47
2023-02-12T09:07:39.769Z,43.40
2023-02-12T09:12:41.243Z,37.13
2023-02-12T09:17:43.671Z,37.53
2023-02-12T09:22:45.199Z,32.78
2023-02-12T09:27:46.764Z,26.77
2023-02-12T09:32:48.331Z,31.30
2023-02-12T09:37:50.148Z,27.83
2023-02-12T09:43:17.962Z,34.33
2023-02-12T09:48:37.795Z,26.25
2023-02-12T09:53:43.305Z,23.58
2023-02-12T09:58:50.133Z,19.58
2023-02-12T10:03:52.759Z,18.03
2023-02-12T10:09:03.777Z,18.60
2023-02-12T10:14:27.093Z,16.67
2023-02-12T10:19:50.294Z,19.80
2023-02-12T10:25:22.584Z,15.98
2023-02-12T10:30:45.911Z,18.50
2023-02-12T10:35:51.577Z,15.02
2023-02-12T10:40:55.153Z,12.15
2023-02-12T10:45:57.384Z,12.02
2023-02-12T10:51:08.262Z,12.90
2023-02-12T10:56:17.328Z,10.32
2023-02-12T11:01:22.255Z,8.88
2023-02-12T11:06:27.915Z,11.18
2023-02-12T11:11:37.094Z,11.43
2023-02-12T11:17:02.697Z,7.82
2023-02-12T11:22:11.427Z,8.93
2023-02-12T11:27:15.823Z,8.77
2023-02-12T11:32:19.769Z,8.23
2023-02-12T11:37:22.297Z,7.50
2023-02-12T11:42:26.405Z,8.82
2023-02-12T11:47:32.065Z,14.82
2023-02-12T11:52:37.019Z,110.70
2023-02-12T11:57:47.114Z,12.77
2023-02-12T12:03:30.161Z,11.27
2023-02-12T12:08:44.008Z,9.00
2023-02-12T12:13:55.647Z,6.75
2023-02-12T12:19:25.058Z,10.98
2023-02-12T12:24:42.183Z,9.52
2023-02-12T12:30:06.704Z,5.93
2023-02-12T12:35:15.963Z,7.40
2023-02-12T12:40:42.920Z,9.50
2023-02-12T12:46:18.131Z,11.05
2023-02-12T12:51:36.889Z,8.93
2023-02-12T12:56:38.405Z,9.60
2023-02-12T13:02:01.862Z,11.57
2023-02-12T13:07:24.570Z,8.10
2023-02-12T13:12:54.080Z,9.25
2023-02-12T13:18:06.511Z,11.80
2023-02-12T13:23:20.893Z,10.38
2023-02-12T13:28:38.350Z,10.02
2023-02-12T13:33:45.101Z,9.85
2023-02-12T13:39:16.177Z,15.23
2023-02-12T13:44:32.717Z,13.13
2023-02-12T13:49:39.988Z,11.65
2023-02-12T13:55:19.336Z,12.30
2023-02-12T14:00:52.007Z,11.68
2023-02-12T14:06:13.538Z,11.45
2023-02-12T14:11:19.302Z,12.35
2023-02-12T14:16:38.601Z,12.55
2023-02-12T14:21:40.360Z,12.25
2023-02-12T14:26:42.058Z,12.93
2023-02-12T14:31:43.964Z,19.33
2023-02-12T14:36:49.144Z,15.00
2023-02-12T14:42:09.826Z,18.40
2023-02-12T14:47:14.320Z,21.45
2023-02-12T14:52:23.053Z,18.90
2023-02-12T14:57:40.581Z,16.70
2023-02-12T15:02:54.194Z,18.15
2023-02-12T15:08:02.798Z,17.75
2023-02-12T15:13:22.592Z,18.73
2023-02-12T15:18:31.002Z,18.77
2023-02-12T15:23:45.506Z,22.92
2023-02-12T15:28:50.310Z,18.10
2023-02-12T15:33:53.817Z,30.08
2023-02-12T15:39:01.523Z,23.88
2023-02-12T15:49:19.443Z,29.33
2023-02-12T15:54:21.219Z,30.85
2023-02-12T15:59:26.566Z,24.83
2023-02-12T16:04:33.103Z,29.40
2023-02-12T16:09:36.713Z,27.95
2023-02-12T16:14:46.537Z,28.05
2023-02-12T16:20:00.401Z,29.65
2023-02-12T16:25:02.744Z,26.02
2023-02-12T16:30:26.758Z,28.70
2023-02-12T16:35:34.350Z,34.83
2023-02-12T16:40:36.518Z,34.92
2023-02-12T16:45:41.375Z,33.28
2023-02-12T16:50:47.366Z,24.65
2023-02-12T16:55:49.239Z,24.15
2023-02-12T17:00:50.783Z,29.65
2023-02-12T17:05:52.748Z,24.85
2023-02-12T17:10:54.347Z,30.08
2023-02-12T17:15:59.647Z,27.05
2023-02-12T17:21:38.050Z,29.35
2023-02-12T17:26:39.696Z,30.52
2023-02-12T17:31:41.341Z,27.30
2023-02-12T17:36:43.126Z,30.55
2023-02-12T17:41:44.903Z,32.75
2023-02-12T17:46:46.379Z,27.33
2023-02-12T17:51:47.867Z,25.38
2023-02-12T17:56:49.706Z,30.38
2023-02-12T18:01:51.339Z,29.15
2023-02-12T18:06:52.870Z,26.95
2023-02-12T18:11:54.396Z,29.98
2023-02-12T18:16:55.953Z,33.17
2023-02-12T18:21:59.039Z,29.05
2023-02-12T18:27:01.450Z,35.35
2023-02-12T18:32:07.530Z,32.70
2023-02-12T18:37:10.877Z,36.40
2023-02-12T18:42:12.682Z,31.58
2023-02-12T18:47:14.169Z,35.25
2023-02-12T18:52:15.698Z,31.55
2023-02-12T18:57:17.381Z,32.33
2023-02-12T19:02:18.914Z,44.33
2023-02-12T19:07:20.448Z,35.65
2023-02-12T19:12:22.036Z,32.83
2023-02-12T19:17:23.578Z,39.78
2023-02-12T19:22:25.028Z,39.30
2023-02-12T19:27:26.540Z,36.80
2023-02-12T19:32:28.514Z,34.00
2023-02-12T19:37:31.845Z,35.22
2023-02-12T19:42:33.848Z,28.13
2023-02-12T19:47:35.345Z,20.33
2023-02-12T19:52:36.973Z,32.72
2023-02-12T19:57:38.598Z,38.35
2023-02-12T20:02:41.689Z,45.35
2023-02-12T20:07:45.061Z,34.78
2023-02-12T20:12:46.612Z,36.42
2023-02-12T20:17:48.079Z,53.80
2023-02-12T20:22:49.547Z,37.58
2023-02-12T20:27:51.111Z,34.67
2023-02-12T20:32:52.580Z,31.67
2023-02-12T20:37:54.063Z,35.63
2023-02-12T20:42:55.588Z,53.75
2023-02-12T20:47:57.091Z,46.92
2023-02-12T20:52:58.683Z,39.03
2023-02-12T20:58:00.235Z,43.13
2023-02-12T21:03:03.877Z,35.03
2023-02-12T21:08:05.402Z,36.08
2023-02-12T21:13:07.216Z,40.90
2023-02-12T21:18:08.687Z,33.80
2023-02-12T21:23:10.196Z,41.28
2023-02-12T21:28:11.699Z,41.63
2023-02-12T21:33:13.213Z,36.60
2023-02-12T21:38:14.696Z,38.55
2023-02-12T21:43:16.231Z,36.33
2023-02-12T21:48:17.753Z,39.50
2023-02-12T21:53:19.266Z,39.55
2023-02-12T21:58:21.663Z,35.72
2023-02-12T22:03:23.186Z,35.08
2023-02-12T22:08:24.711Z,38.22
2023-02-12T22:13:26.232Z,38.13
2023-02-12T22:18:27.793Z,37.63
2023-02-12T22:23:29.291Z,36.53
2023-02-12T22:28:30.814Z,41.47
2023-02-12T22:33:32.393Z,41.40
2023-02-12T22:38:38.695Z,43.88
2023-02-12T22:43:40.694Z,48.53
2023-02-12T22:48:42.256Z,45.70
2023-02-12T22:53:43.926Z,45.50
2023-02-12T22:58:46.311Z,50.60
2023-02-12T23:03:47.902Z,50.33
2023-02-12T23:08:51.142Z,53.30
2023-02-12T23:13:52.833Z,56.53
2023-02-12T23:18:59.272Z,53.67
2023-02-12T23:24:00.969Z,54.35
2023-02-12T23:29:02.522Z,52.58
2023-02-12T23:34:03.998Z,54.80
2023-02-12T23:39:06.036Z,54.78
2023-02-12T23:44:09.892Z,55.35
2023-02-12T23:49:11.396Z,54.47
2023-02-12T23:54:13.492Z,45.80
2023-02-12T23:59:15.025Z,54.40
